Time;durP1;ratioP1;P1;durP2;ratioP2;P2;SDS_P1;SDS_P2;PMS_P1;PMS_P2;Temp;Humidity;BMP_temperature;BMP_pressure;BME280_temperature;BME280_humidity;BME280_pressure;Samples;Min_cycle;Max_cycle;Signal;HPM_P1;HPM_P2
2024/03/23 00:00:10;;;;;;;14.68;10.27;;;;;;;0.65;66.55;93525.28;521749;28;860;-69
2024/03/23 00:00:26;;;;;;;14.47;10.33;;;;;;;0.65;66.49;93533.44;520776;28;1121;-68
2024/03/23 00:00:41;;;;;;;14.18;10.50;;;;;;;0.63;66.69;93525.00;520405;28;1991;-68
2024/03/23 00:00:57;;;;;;;15.70;10.57;;;;;;;0.61;66.84;93528.22;520336;28;847;-68
2024/03/23 00:01:13;;;;;;;15.40;10.57;;;;;;;0.57;66.55;93527.69;518889;28;816;-68
2024/03/23 00:01:28;;;;;;;13.67;10.20;;;;;;;0.50;66.92;93530.09;519059;28;784;-68
2024/03/23 00:01:43;;;;;;;14.52;9.98;;;;;;;0.46;66.74;93521.41;520886;28;864;-69
2024/03/23 00:01:59;;;;;;;15.67;10.60;;;;;;;0.43;66.92;93527.81;520507;28;1065;-68
2024/03/23 00:02:14;;;;;;;14.88;10.63;;;;;;;0.36;67.28;93534.44;518859;28;772;-69
2024/03/23 00:02:30;;;;;;;12.77;9.73;;;;;;;0.33;66.85;93521.06;519527;28;745;-69
2024/03/23 00:02:45;;;;;;;12.02;9.55;;;;;;;0.30;66.62;93527.47;523016;28;780;-69
2024/03/23 00:03:01;;;;;;;14.63;11.57;;;;;;;0.27;66.88;93526.44;522892;28;831;-69
2024/03/23 00:03:16;;;;;;;18.93;13.47;;;;;;;0.27;66.94;93526.44;521546;28;1661;-70
2024/03/23 00:03:32;;;;;;;19.73;13.13;;;;;;;0.26;66.97;93524.22;520084;28;1048;-69
2024/03/23 00:03:47;;;;;;;16.20;11.63;;;;;;;0.24;67.23;93523.97;520789;28;886;-68
2024/03/23 00:04:02;;;;;;;14.77;10.85;;;;;;;0.19;66.94;93530.09;520924;28;792;-69
2024/03/23 00:04:18;;;;;;;16.07;10.83;;;;;;;0.18;67.03;93523.91;520195;28;982;-70
2024/03/23 00:04:33;;;;;;;16.77;11.52;;;;;;;0.18;67.13;93531.28;520466;28;798;-70
2024/03/23 00:04:49;;;;;;;14.73;10.73;;;;;;;0.14;67.27;93517.19;523286;28;757;-70
2024/03/23 00:05:05;;;;;;;14.27;10.27;;;;;;;0.17;67.24;93521.66;523143;28;761;-70
2024/03/23 00:05:21;;;;;;;14.77;10.93;;;;;;;0.17;67.11;93530.56;521344;28;908;-70
2024/03/23 00:05:39;;;;;;;12.15;10.15;;;;;;;0.19;67.06;93519.22;521898;28;843;-70
2024/03/23 00:05:55;;;;;;;11.70;9.15;;;;;;;0.20;67.40;93518.72;522906;28;812;-68
2024/03/23 00:06:11;;;;;;;13.55;9.57;;;;;;;0.23;67.06;93519.75;522863;28;1748;-68
2024/03/23 00:06:26;;;;;;;13.85;10.10;;;;;;;0.26;66.57;93519.53;520194;28;872;-68
2024/03/23 00:06:42;;;;;;;14.67;10.37;;;;;;;0.30;66.93;93520.06;522608;28;844;-68
2024/03/23 00:06:57;;;;;;;13.32;9.95;;;;;;;0.32;67.21;93525.00;520121;28;991;-68
2024/03/23 00:07:13;;;;;;;12.80;10.00;;;;;;;0.35;66.82;93521.31;520955;28;832;-69
2024/03/23 00:07:28;;;;;;;14.07;10.25;;;;;;;0.37;66.88;93518.91;520859;28;784;-68
2024/03/23 00:07:44;;;;;;;13.73;9.67;;;;;;;0.35;66.80;93521.31;522841;28;811;-68
2024/03/23 00:08:00;;;;;;;13.40;9.23;;;;;;;0.34;66.72;93523.31;522840;28;900;-68
2024/03/23 00:08:15;;;;;;;13.10;8.68;;;;;;;0.35;66.69;93518.59;523026;28;780;-68
2024/03/23 00:08:30;;;;;;;12.87;8.73;;;;;;;0.34;66.59;93519.84;521296;28;963;-68
2024/03/23 00:08:46;;;;;;;12.05;8.93;;;;;;;0.34;66.75;93519.84;522933;28;776;-68
2024/03/23 00:09:02;;;;;;;11.13;8.63;;;;;;;0.36;66.70;93514.69;520175;28;1660;-68
2024/03/23 00:09:17;;;;;;;11.35;8.70;;;;;;;0.38;66.81;93515.69;520275;28;875;-68
2024/03/23 00:09:32;;;;;;;11.00;8.70;;;;;;;0.40;66.93;93515.19;520794;28;797;-68
2024/03/23 00:09:48;;;;;;;11.63;9.30;;;;;;;0.44;66.76;93523.88;522905;28;823;-68
2024/03/23 00:10:04;;;;;;;12.43;9.53;;;;;;;0.44;67.04;93524.63;521496;28;898;-68
2024/03/23 00:10:22;;;;;;;12.77;8.90;;;;;;;0.46;67.38;93518.69;520912;28;1069;-68
2024/03/23 00:10:37;;;;;;;12.60;8.80;;;;;;;0.48;67.29;93516.25;521871;28;1084;-68
2024/03/23 00:10:53;;;;;;;11.63;8.73;;;;;;;0.52;67.11;93524.94;522969;28;839;-68
2024/03/23 00:11:08;;;;;;;11.13;8.83;;;;;;;0.55;67.14;93518.53;521450;28;1111;-68
2024/03/23 00:11:24;;;;;;;9.90;8.13;;;;;;;0.56;67.28;93518.03;520895;28;832;-68
2024/03/23 00:11:39;;;;;;;9.18;7.43;;;;;;;0.58;67.02;93512.88;522250;28;745;-68
2024/03/23 00:11:54;;;;;;;9.63;7.57;;;;;;;0.61;66.85;93513.88;522029;28;957;-68
2024/03/23 00:12:10;;;;;;;9.45;7.50;;;;;;;0.63;66.58;93519.56;520845;28;1049;-68
2024/03/23 00:12:26;;;;;;;9.33;7.07;;;;;;;0.65;66.23;93519.84;520900;28;824;-68
2024/03/23 00:12:42;;;;;;;9.02;6.90;;;;;;;0.63;66.31;93516.84;522466;28;891;-68
2024/03/23 00:13:01;;;;;;;9.27;7.32;;;;;;;0.63;66.32;93514.13;522971;28;784;-68
2024/03/23 00:13:17;;;;;;;9.10;6.88;;;;;;;0.67;66.39;93518.13;521305;28;1669;-68
2024/03/23 00:13:33;;;;;;;8.67;6.43;;;;;;;0.69;66.24;93518.38;520199;28;998;-68
2024/03/23 00:13:48;;;;;;;8.52;6.55;;;;;;;0.72;66.19;93520.16;521952;28;832;-68
2024/03/23 00:14:03;;;;;;;9.83;6.80;;;;;;;0.73;65.94;93516.22;520851;28;813;-68
2024/03/23 00:14:19;;;;;;;9.57;6.88;;;;;;;0.76;65.97;93517.19;520001;28;777;-68
2024/03/23 00:14:35;;;;;;;8.33;6.70;;;;;;;0.77;65.68;93515.97;520672;28;840;-68
2024/03/23 00:14:52;;;;;;;9.38;6.63;;;;;;;0.79;65.85;93518.94;522874;28;836;-68
2024/03/23 00:15:07;;;;;;;10.73;6.60;;;;;;;0.81;65.53;93521.19;522082;28;993;-68
2024/03/23 00:15:23;;;;;;;11.20;6.50;;;;;;;0.83;65.38;93516.75;520857;28;828;-68
2024/03/23 00:15:38;;;;;;;10.20;5.97;;;;;;;0.86;65.33;93515.78;522033;28;800;-68
2024/03/23 00:15:54;;;;;;;7.82;5.63;;;;;;;0.88;65.14;93516.06;522855;28;914;-68
2024/03/23 00:16:09;;;;;;;7.40;5.87;;;;;;;0.89;65.00;93516.81;521985;28;1095;-68
2024/03/23 00:16:26;;;;;;;10.40;6.78;;;;;;;0.91;64.81;93511.63;519506;28;1788;-68
2024/03/23 00:16:41;;;;;;;11.85;8.00;;;;;;;0.90;65.12;93510.88;521959;28;824;-68
2024/03/23 00:16:56;;;;;;;11.83;8.37;;;;;;;0.87;64.43;93508.41;520910;28;756;-68
2024/03/23 00:17:12;;;;;;;12.88;8.68;;;;;;;0.80;64.66;93512.31;520467;28;1299;-68
2024/03/23 00:17:27;;;;;;;13.77;9.50;;;;;;;0.80;64.66;93509.59;520337;28;1680;-69
2024/03/23 00:17:43;;;;;;;19.38;10.98;;;;;;;0.81;64.59;93511.06;522235;28;887;-68
2024/03/23 00:17:58;;;;;;;19.77;11.43;;;;;;;0.80;64.61;93512.31;520813;28;776;-68
2024/03/23 00:18:13;;;;;;;18.23;11.80;;;;;;;0.77;64.66;93511.28;520912;28;792;-68
2024/03/23 00:18:29;;;;;;;19.85;12.57;;;;;;;0.73;64.64;93513.50;520701;28;1037;-68
2024/03/23 00:18:45;;;;;;;21.03;13.43;;;;;;;0.73;64.71;93513.50;520916;28;750;-68
2024/03/23 00:19:02;;;;;;;25.25;14.73;;;;;;;0.68;64.91;93508.00;519985;28;1309;-68
2024/03/23 00:19:18;;;;;;;25.67;15.32;;;;;;;0.68;64.72;93508.75;520216;28;864;-68
2024/03/23 00:19:33;;;;;;;24.23;15.90;;;;;;;0.70;64.65;93510.97;520416;28;1082;-68
2024/03/23 00:19:48;;;;;;;26.80;16.53;;;;;;;0.71;64.42;93513.19;520798;28;804;-68
2024/03/23 00:20:04;;;;;;;25.52;16.20;;;;;;;0.72;64.95;93511.25;519647;28;1095;-68
2024/03/23 00:20:19;;;;;;;22.60;15.13;;;;;;;0.73;65.04;93516.22;518804;28;837;-68
2024/03/23 00:20:35;;;;;;;23.70;15.75;;;;;;;0.74;64.83;93509.53;520872;28;1918;-68
2024/03/23 00:20:58;;;;;;;24.70;15.77;;;;;;;0.77;64.80;93513.25;522749;28;757;-68
2024/03/23 00:21:14;;;;;;;23.77;16.65;;;;;;;0.80;64.92;93511.56;520769;28;927;-68
2024/03/23 00:21:29;;;;;;;27.23;18.20;;;;;;;0.82;64.39;93515.28;520909;28;907;-68
2024/03/23 00:21:45;;;;;;;26.85;17.42;;;;;;;0.84;64.08;93510.09;522942;28;792;-68
2024/03/23 00:22:00;;;;;;;24.97;16.20;;;;;;;0.87;64.20;93511.13;522921;28;821;-67
2024/03/23 00:22:16;;;;;;;24.40;16.25;;;;;;;0.83;64.49;93511.31;519959;28;1400;-68
2024/03/23 00:22:31;;;;;;;23.83;16.53;;;;;;;0.85;64.35;93508.09;520306;28;773;-68
2024/03/23 00:22:46;;;;;;;26.67;16.48;;;;;;;0.86;64.42;93515.03;521710;28;844;-69
2024/03/23 00:23:02;;;;;;;28.83;17.07;;;;;;;0.89;63.88;93516.81;520822;28;757;-68
2024/03/23 00:23:17;;;;;;;27.73;17.80;;;;;;;0.91;64.35;93511.63;519795;28;836;-68
2024/03/23 00:23:33;;;;;;;27.10;18.02;;;;;;;0.92;64.20;93516.56;520155;28;773;-68
2024/03/23 00:23:48;;;;;;;26.27;17.63;;;;;;;0.93;64.46;93509.16;521312;28;839;-69
2024/03/23 00:24:07;;;;;;;26.25;18.08;;;;;;;0.96;64.20;93511.66;520713;28;863;-68
2024/03/23 00:24:23;;;;;;;30.35;18.55;;;;;;;0.96;64.44;93510.91;520649;28;891;-70
2024/03/23 00:24:38;;;;;;;33.08;19.00;;;;;;;0.93;64.34;93509.91;521913;28;865;-69
2024/03/23 00:24:55;;;;;;;29.00;17.90;;;;;;;0.96;64.22;93514.38;522744;28;895;-68
2024/03/23 00:25:10;;;;;;;25.47;16.80;;;;;;;0.92;64.20;93513.09;522719;28;910;-68
2024/03/23 00:25:25;;;;;;;26.27;17.60;;;;;;;0.89;64.32;93514.81;521250;28;1056;-68
2024/03/23 00:25:41;;;;;;;26.87;17.80;;;;;;;0.89;64.10;93509.38;522243;28;773;-69
2024/03/23 00:25:56;;;;;;;26.73;17.73;;;;;;;0.89;64.30;93514.81;522718;28;856;-68
2024/03/23 00:26:12;;;;;;;28.00;17.88;;;;;;;0.90;64.46;93512.84;522928;28;761;-68
2024/03/23 00:26:27;;;;;;;27.37;17.53;;;;;;;0.90;64.51;93507.41;519386;28;1819;-68
2024/03/23 00:26:42;;;;;;;28.92;18.70;;;;;;;0.91;64.33;93511.63;522649;28;848;-68
2024/03/23 00:26:58;;;;;;;35.77;22.70;;;;;;;0.46;64.35;93445.38;520525;28;2136;-68
2024/03/23 00:27:13;;;;;;;39.55;24.23;;;;;;;0.95;64.33;93510.16;518699;28;773;-68
2024/03/23 00:27:29;;;;;;;38.03;23.20;;;;;;;0.97;64.14;93510.44;518523;28;852;-69
2024/03/23 00:27:44;;;;;;;37.03;22.58;;;;;;;0.99;63.97;93509.94;520641;28;839;-68
2024/03/23 00:28:00;;;;;;;33.83;21.27;;;;;;;1.02;63.93;93514.41;520582;28;813;-68
2024/03/23 00:28:15;;;;;;;34.03;21.50;;;;;;;1.05;63.79;93508.75;520753;28;792;-68
2024/03/23 00:28:30;;;;;;;35.17;21.40;;;;;;;1.06;63.36;93507.50;519330;28;1062;-68
2024/03/23 00:28:46;;;;;;;32.23;20.10;;;;;;;1.07;63.80;93509.00;518927;28;841;-69
2024/03/23 00:29:03;;;;;;;32.78;20.13;;;;;;;1.09;63.30;93509.25;520715;28;816;-68
2024/03/23 00:29:19;;;;;;;33.50;20.55;;;;;;;1.12;63.54;93510.25;520839;28;876;-68
2024/03/23 00:29:34;;;;;;;31.48;20.00;;;;;;;1.11;63.43;93506.78;521563;28;817;-69
2024/03/23 00:29:50;;;;;;;29.03;19.87;;;;;;;1.12;63.12;93511.00;522946;28;784;-68
2024/03/23 00:30:07;;;;;;;29.25;19.38;;;;;;;1.13;63.33;93506.28;522985;28;796;-68
2024/03/23 00:30:22;;;;;;;29.13;17.95;;;;;;;1.14;63.39;93508.53;520276;28;1401;-68
2024/03/23 00:30:38;;;;;;;28.83;17.87;;;;;;;1.15;63.19;93510.03;520629;28;800;-68
2024/03/23 00:30:53;;;;;;;28.55;18.20;;;;;;;1.17;63.00;93506.84;519962;28;938;-68
2024/03/23 00:31:09;;;;;;;28.00;17.90;;;;;;;1.18;63.33;93509.06;518821;28;797;-69
2024/03/23 00:31:24;;;;;;;25.63;17.00;;;;;;;1.19;62.96;93507.81;519508;28;816;-69
2024/03/23 00:31:40;;;;;;;24.90;17.23;;;;;;;1.20;62.97;93511.28;522246;28;737;-69
2024/03/23 00:31:56;;;;;;;25.08;17.90;;;;;;;1.22;63.05;93508.81;521046;28;922;-70
2024/03/23 00:32:11;;;;;;;23.55;16.70;;;;;;;1.21;63.01;93508.06;520821;28;1024;-68
2024/03/23 00:32:27;;;;;;;24.10;16.63;;;;;;;1.22;62.74;93506.09;520800;28;927;-68
2024/03/23 00:32:42;;;;;;;25.33;16.83;;;;;;;1.23;63.14;93504.88;522647;28;840;-68
2024/03/23 00:32:58;;;;;;;27.13;17.43;;;;;;;1.23;63.07;93505.63;522931;28;804;-68
2024/03/23 00:33:13;;;;;;;27.80;18.10;;;;;;;1.24;62.58;93506.34;522905;28;891;-70
2024/03/23 00:33:28;;;;;;;26.27;17.53;;;;;;;1.26;63.08;93506.59;521749;28;1087;-68
2024/03/23 00:33:44;;;;;;;26.20;17.53;;;;;;;1.26;62.54;93507.38;518755;28;891;-68
2024/03/23 00:33:59;;;;;;;28.27;18.07;;;;;;;1.26;62.86;93507.38;519195;28;1599;-69
2024/03/23 00:34:15;;;;;;;29.83;18.60;;;;;;;1.27;62.52;93500.69;519792;28;745;-68
2024/03/23 00:34:30;;;;;;;29.90;18.50;;;;;;;1.28;62.54;93507.63;520622;28;820;-68
2024/03/23 00:34:46;;;;;;;29.30;17.53;;;;;;;1.28;62.72;93509.59;522816;28;765;-68
2024/03/23 00:35:01;;;;;;;29.67;18.00;;;;;;;1.28;62.34;93507.63;521996;28;863;-68
2024/03/23 00:35:17;;;;;;;26.47;18.73;;;;;;;1.28;62.68;93507.63;518774;28;745;-68
2024/03/23 00:35:33;;;;;;;27.42;18.77;;;;;;;1.27;62.59;93510.84;520169;28;825;-69
2024/03/23 00:35:48;;;;;;;31.30;18.45;;;;;;;1.27;62.31;93499.94;522898;28;793;-68
2024/03/23 00:36:04;;;;;;;30.30;18.37;;;;;;;1.27;62.56;93508.13;522196;28;804;-68
2024/03/23 00:36:19;;;;;;;30.08;18.95;;;;;;;1.26;62.53;93507.38;520769;28;892;-68
2024/03/23 00:36:35;;;;;;;30.50;18.90;;;;;;;1.24;62.52;93507.09;520721;28;1645;-68
2024/03/23 00:36:50;;;;;;;27.58;18.45;;;;;;;1.24;62.72;93511.78;520164;28;896;-68
2024/03/23 00:37:05;;;;;;;23.27;16.83;;;;;;;1.24;63.03;93509.81;519116;28;784;-69
2024/03/23 00:37:21;;;;;;;22.77;15.23;;;;;;;1.25;62.94;93505.13;520811;28;809;-68
2024/03/23 00:37:36;;;;;;;25.03;15.93;;;;;;;1.25;63.09;93502.41;521687;28;828;-68
2024/03/23 00:37:52;;;;;;;24.80;16.13;;;;;;;1.24;62.89;93509.06;520848;28;841;-69
2024/03/23 00:38:07;;;;;;;24.55;16.40;;;;;;;1.24;62.73;93515.25;520863;28;840;-68
2024/03/23 00:38:24;;;;;;;25.90;17.10;;;;;;;1.23;63.01;93515.75;520718;28;1001;-68
2024/03/23 00:38:40;;;;;;;26.30;16.80;;;;;;;1.22;63.29;93508.81;522144;28;919;-68
2024/03/23 00:38:55;;;;;;;25.57;16.30;;;;;;;1.20;62.90;93508.56;520814;28;761;-68
2024/03/23 00:39:11;;;;;;;24.77;16.20;;;;;;;1.15;63.35;93506.59;520797;28;868;-69
2024/03/23 00:39:26;;;;;;;24.25;16.35;;;;;;;1.11;63.11;93509.50;519274;28;1709;-69
2024/03/23 00:39:42;;;;;;;25.02;17.23;;;;;;;1.08;63.20;93504.31;522568;28;832;-68
2024/03/23 00:39:57;;;;;;;24.67;17.10;;;;;;;1.05;63.59;93506.03;520796;28;903;-68
2024/03/23 00:40:13;;;;;;;23.10;16.75;;;;;;;1.02;63.48;93511.69;520792;28;840;-69
2024/03/23 00:40:28;;;;;;;24.07;16.83;;;;;;;0.97;64.04;93515.88;520791;28;761;-68
2024/03/23 00:40:44;;;;;;;24.00;16.17;;;;;;;0.95;63.86;93512.91;520761;28;1926;-68
2024/03/23 00:40:59;;;;;;;23.00;15.93;;;;;;;0.91;63.59;93504.19;520780;28;765;-68
2024/03/23 00:41:15;;;;;;;23.10;15.90;;;;;;;0.89;64.13;93512.09;520849;28;848;-68
2024/03/23 00:41:30;;;;;;;24.43;15.33;;;;;;;0.85;63.99;93511.56;520662;28;891;-68
2024/03/23 00:41:46;;;;;;;24.00;15.13;;;;;;;0.84;63.95;93510.09;520738;28;884;-68
2024/03/23 00:42:01;;;;;;;22.93;15.43;;;;;;;0.79;64.33;93516.25;519604;28;1393;-68
2024/03/23 00:42:17;;;;;;;22.35;15.02;;;;;;;0.78;64.02;93512.00;520769;28;784;-68
2024/03/23 00:42:32;;;;;;;23.93;14.57;;;;;;;0.75;64.42;93507.56;521315;28;788;-68
2024/03/23 00:42:47;;;;;;;23.40;14.97;;;;;;;0.72;64.06;93511.25;522815;28;879;-68
2024/03/23 00:43:03;;;;;;;20.75;14.25;;;;;;;0.69;64.39;93512.22;522869;28;840;-68
2024/03/23 00:43:18;;;;;;;21.10;13.23;;;;;;;0.64;64.26;93510.97;521245;28;910;-68
2024/03/23 00:43:34;;;;;;;20.60;13.07;;;;;;;0.61;64.54;93508.44;520850;28;860;-68
2024/03/23 00:43:49;;;;;;;20.93;12.93;;;;;;;0.58;64.36;93510.19;520691;28;1196;-68
2024/03/23 00:44:04;;;;;;;22.52;12.70;;;;;;;0.55;64.29;93513.09;519450;28;1717;-68
2024/03/23 00:44:20;;;;;;;19.50;12.07;;;;;;;0.56;64.46;93511.88;520392;28;804;-69
2024/03/23 00:44:35;;;;;;;17.50;11.10;;;;;;;0.55;64.63;93510.38;520310;28;994;-69
2024/03/23 00:44:51;;;;;;;15.18;10.55;;;;;;;0.54;64.13;93506.91;520747;28;876;-68
2024/03/23 00:45:08;;;;;;;13.57;10.73;;;;;;;0.53;64.45;93508.16;520825;28;784;-68
2024/03/23 00:45:23;;;;;;;14.82;10.88;;;;;;;0.52;64.24;93509.38;520690;28;1021;-68
2024/03/23 00:45:39;;;;;;;15.00;10.77;;;;;;;0.53;64.18;93510.13;522082;28;884;-68
2024/03/23 00:45:54;;;;;;;14.68;10.65;;;;;;;0.49;63.99;93504.16;522918;28;792;-69
2024/03/23 00:46:10;;;;;;;15.17;11.23;;;;;;;0.47;64.36;93515.53;521255;28;848;-69
2024/03/23 00:46:25;;;;;;;16.00;11.57;;;;;;;0.46;64.58;93511.31;520901;28;924;-68
2024/03/23 00:46:41;;;;;;;12.98;10.05;;;;;;;0.44;64.33;93516.47;520592;28;1736;-68
2024/03/23 00:46:56;;;;;;;11.50;9.40;;;;;;;0.42;64.39;93510.03;519696;28;851;-68
2024/03/23 00:47:12;;;;;;;12.60;9.65;;;;;;;0.40;64.67;93509.75;520815;28;788;-68
2024/03/23 00:47:27;;;;;;;13.63;9.20;;;;;;;0.39;64.51;93511.72;520816;28;1236;-68
2024/03/23 00:47:42;;;;;;;13.13;9.25;;;;;;;0.36;64.17;93507.28;521796;28;903;-68
2024/03/23 00:47:58;;;;;;;12.40;9.27;;;;;;;0.36;64.68;93509.25;520756;28;1192;-68
2024/03/23 00:48:14;;;;;;;14.30;9.30;;;;;;;0.31;64.70;93513.41;520689;28;972;-68
2024/03/23 00:48:31;;;;;;;13.68;10.05;;;;;;;0.29;64.56;93513.13;520499;28;970;-68
2024/03/23 00:48:46;;;;;;;13.77;10.82;;;;;;;0.27;64.77;93512.13;519988;28;923;-68
2024/03/23 00:49:01;;;;;;;14.57;10.60;;;;;;;-0.25;64.87;93438.88;518761;28;844;-68
2024/03/23 00:49:17;;;;;;;14.90;10.60;;;;;;;0.18;65.07;93504.16;518779;28;797;-68
2024/03/23 00:49:32;;;;;;;14.55;10.80;;;;;;;0.15;65.01;93510.56;520157;28;765;-68
2024/03/23 00:49:48;;;;;;;15.50;11.27;;;;;;;0.11;65.09;93518.88;522850;28;859;-68
2024/03/23 00:50:03;;;;;;;17.27;11.60;;;;;;;0.08;65.44;93502.84;522832;28;879;-68
2024/03/23 00:50:19;;;;;;;17.10;11.75;;;;;;;0.08;65.21;93509.00;520098;28;1428;-68
2024/03/23 00:50:35;;;;;;;16.90;12.40;;;;;;;0.05;65.54;93509.22;520655;28;892;-67
2024/03/23 00:50:51;;;;;;;18.30;13.45;;;;;;;0.00;65.47;93507.97;521490;28;840;-68
2024/03/23 00:51:06;;;;;;;18.85;14.32;;;;;;;-0.02;65.69;93505.69;520849;28;781;-68
2024/03/23 00:51:22;;;;;;;21.27;15.97;;;;;;;-0.04;65.50;93510.88;519486;28;1092;-68
2024/03/23 00:51:37;;;;;;;23.50;16.10;;;;;;;-0.06;66.09;93507.13;521353;28;828;-68
2024/03/23 00:51:52;;;;;;;20.88;14.27;;;;;;;-0.07;66.10;93508.38;521041;28;1049;-68
2024/03/23 00:52:08;;;;;;;18.90;13.67;;;;;;;-0.08;65.80;93510.34;520866;28;776;-69
2024/03/23 00:52:23;;;;;;;16.70;13.02;;;;;;;-0.08;66.19;93504.91;520761;28;860;-68
2024/03/23 00:52:39;;;;;;;16.83;11.93;;;;;;;-0.06;66.22;93509.84;522106;28;765;-68
2024/03/23 00:52:54;;;;;;;16.87;11.63;;;;;;;-0.06;66.25;93505.16;521538;28;1724;-68
2024/03/23 00:53:10;;;;;;;16.10;10.98;;;;;;;-0.04;66.28;93502.72;519643;28;804;-68
2024/03/23 00:53:25;;;;;;;18.47;11.97;;;;;;;-0.03;66.17;93509.66;520649;28;1048;-68
2024/03/23 00:53:40;;;;;;;17.75;13.02;;;;;;;0.00;66.29;93508.69;522341;28;785;-68
2024/03/23 00:53:56;;;;;;;16.60;12.50;;;;;;;0.04;66.34;93519.34;522404;28;852;-68
2024/03/23 00:54:11;;;;;;;18.45;12.48;;;;;;;0.07;66.15;93506.75;520785;28;832;-68
2024/03/23 00:54:27;;;;;;;16.97;12.13;;;;;;;0.09;66.15;93512.47;520808;28;761;-69
2024/03/23 00:54:42;;;;;;;15.93;12.00;;;;;;;0.11;65.94;93501.88;522617;28;856;-68
2024/03/23 00:54:58;;;;;;;16.17;11.77;;;;;;;0.12;65.98;93504.09;522389;28;1057;-68
2024/03/23 00:55:14;;;;;;;13.98;10.50;;;;;;;0.15;65.82;93500.44;520848;28;769;-68
2024/03/23 00:55:29;;;;;;;13.32;10.13;;;;;;;0.16;65.73;93503.88;520709;28;831;-68
2024/03/23 00:55:44;;;;;;;14.00;10.73;;;;;;;0.14;65.69;93503.63;522860;28;888;-68
2024/03/23 00:56:00;;;;;;;15.13;11.20;;;;;;;0.15;65.93;93505.13;522842;28;899;-68
2024/03/23 00:56:15;;;;;;;15.10;10.73;;;;;;;0.14;65.81;93509.03;522889;28;788;-68
2024/03/23 00:56:31;;;;;;;14.40;9.43;;;;;;;0.08;66.03;93509.00;522394;28;796;-68
2024/03/23 00:56:46;;;;;;;14.23;8.93;;;;;;;0.02;65.91;93510.19;519585;28;1381;-68
2024/03/23 00:57:02;;;;;;;12.00;8.63;;;;;;;0.00;65.83;93508.69;520325;28;773;-68
2024/03/23 00:57:17;;;;;;;11.45;8.68;;;;;;;0.04;66.21;93513.16;519276;28;773;-68
2024/03/23 00:57:33;;;;;;;13.00;8.47;;;;;;;0.05;66.25;93501.81;520198;28;831;-68
2024/03/23 00:57:48;;;;;;;11.70;7.70;;;;;;;0.09;66.15;93512.47;521531;28;761;-68
2024/03/23 00:58:04;;;;;;;10.27;7.80;;;;;;;0.12;66.17;93506.06;520767;28;1018;-68
2024/03/23 00:58:19;;;;;;;10.60;7.68;;;;;;;0.13;66.31;93504.84;520675;28;1029;-68
2024/03/23 00:58:35;;;;;;;9.97;7.10;;;;;;;0.10;66.06;93512.00;521624;28;832;-68
2024/03/23 00:58:50;;;;;;;9.38;6.60;;;;;;;0.06;66.17;93510.72;521684;28;1221;-68
2024/03/23 00:59:05;;;;;;;9.37;6.83;;;;;;;0.06;66.04;93510.72;520810;28;879;-68
2024/03/23 00:59:22;;;;;;;9.68;6.97;;;;;;;0.08;66.35;93514.44;520816;28;856;-68
2024/03/23 00:59:37;;;;;;;10.07;6.50;;;;;;;0.10;66.17;93511.25;521897;28;879;-68
2024/03/23 00:59:53;;;;;;;9.93;6.63;;;;;;;0.06;66.25;93508.75;521329;28;1409;-68
2024/03/23 01:00:10;;;;;;;9.13;7.00;;;;;;;-0.02;66.30;93508.41;519634;28;836;-68
2024/03/23 01:00:25;;;;;;;10.27;7.10;;;;;;;-0.10;66.43;93510.06;520278;28;867;-68
2024/03/23 01:00:41;;;;;;;11.32;6.93;;;;;;;-0.16;66.39;93512.00;522370;28;1916;-68
2024/03/23 01:00:56;;;;;;;10.83;6.73;;;;;;;-0.20;66.57;93510.72;522415;28;1075;-68
2024/03/23 01:01:12;;;;;;;8.93;6.45;;;;;;;-0.18;66.57;93506.28;520740;28;785;-68
2024/03/23 01:01:27;;;;;;;8.53;6.67;;;;;;;-0.15;66.73;93513.47;520647;28;1013;-68
2024/03/23 01:01:43;;;;;;;8.57;7.07;;;;;;;-0.15;66.85;93513.47;522715;28;765;-68
2024/03/23 01:01:58;;;;;;;9.50;7.63;;;;;;;-0.17;66.65;93512.44;522742;28;855;-68
2024/03/23 01:02:13;;;;;;;11.27;7.63;;;;;;;-0.19;66.76;93512.19;520862;28;797;-68
2024/03/23 01:02:29;;;;;;;11.15;7.47;;;;;;;-0.16;66.53;93508.53;520755;28;852;-68
2024/03/23 01:02:44;;;;;;;10.10;7.33;;;;;;;-0.13;66.42;93505.59;519243;28;1828;-69
2024/03/23 01:03:00;;;;;;;11.15;7.30;;;;;;;-0.09;66.49;93511.53;522522;28;1227;-69
2024/03/23 01:03:15;;;;;;;11.03;7.37;;;;;;;-0.04;66.40;93513.56;522749;28;808;-68
2024/03/23 01:03:31;;;;;;;9.35;7.40;;;;;;;-0.01;66.13;93507.22;523482;28;847;-68
2024/03/23 01:03:46;;;;;;;9.93;7.63;;;;;;;0.04;66.23;93508.47;523545;28;851;-68
2024/03/23 01:04:02;;;;;;;10.30;7.32;;;;;;;0.08;65.91;93500.88;523454;28;777;-68
2024/03/23 01:04:18;;;;;;;10.85;7.53;;;;;;;0.13;65.76;93507.56;523458;28;813;-69
2024/03/23 01:04:33;;;;;;;11.60;7.80;;;;;;;0.15;65.81;93500.44;524003;28;792;-68
2024/03/23 01:04:49;;;;;;;11.05;8.07;;;;;;;0.20;65.62;93501.69;523422;28;1026;-68
2024/03/23 01:05:04;;;;;;;10.73;8.33;;;;;;;0.24;65.59;93500.25;521533;28;840;-68
2024/03/23 01:05:20;;;;;;;12.47;8.80;;;;;;;0.27;65.54;93503.97;521478;28;796;-68
2024/03/23 01:05:35;;;;;;;11.77;8.38;;;;;;;0.28;65.58;93497.34;522328;28;804;-68
2024/03/23 01:05:50;;;;;;;10.83;7.77;;;;;;;0.33;65.28;93502.06;523501;28;852;-68
2024/03/23 01:06:06;;;;;;;11.27;8.18;;;;;;;0.34;65.14;93498.13;523643;28;781;-68
2024/03/23 01:06:21;;;;;;;11.23;8.10;;;;;;;0.36;65.32;93496.41;522360;28;1060;-68
2024/03/23 01:06:37;;;;;;;10.65;7.97;;;;;;;0.38;65.10;93501.34;522095;28;1569;-69
2024/03/23 01:06:52;;;;;;;10.97;8.87;;;;;;;0.38;65.20;93493.22;519977;28;820;-69
2024/03/23 01:07:08;;;;;;;11.55;9.65;;;;;;;0.41;64.90;93497.69;521563;28;860;-68
2024/03/23 01:07:23;;;;;;;12.53;9.37;;;;;;;0.42;65.18;93497.19;519467;28;817;-68
2024/03/23 01:07:39;;;;;;;14.90;10.13;;;;;;;0.44;64.47;93500.19;522462;28;868;-68
2024/03/23 01:07:54;;;;;;;15.50;11.13;;;;;;;0.46;64.95;93502.41;521333;28;918;-69
2024/03/23 01:08:09;;;;;;;14.82;11.25;;;;;;;0.46;64.92;93495.00;521502;28;777;-68
2024/03/23 01:08:25;;;;;;;14.33;10.93;;;;;;;0.42;64.91;93493.72;520797;28;1539;-69
2024/03/23 01:08:40;;;;;;;15.57;10.97;;;;;;;0.46;64.85;93497.72;521284;28;899;-69
2024/03/23 01:08:56;;;;;;;16.23;11.05;;;;;;;0.47;64.78;93493.78;521437;28;820;-68
2024/03/23 01:09:12;;;;;;;15.37;10.50;;;;;;;0.48;64.93;93497.97;521552;28;729;-68
2024/03/23 01:09:27;;;;;;;14.45;10.27;;;;;;;0.49;64.91;93493.31;521420;28;825;-68
2024/03/23 01:09:43;;;;;;;14.15;10.25;;;;;;;0.51;65.13;93493.56;520853;28;1487;-68
2024/03/23 01:09:59;;;;;;;14.25;10.02;;;;;;;0.51;65.07;93494.31;520961;28;876;-69
2024/03/23 01:10:15;;;;;;;14.17;10.87;;;;;;;0.46;65.11;93478.72;521222;28;962;-68
2024/03/23 01:10:30;;;;;;;15.38;11.88;;;;;;;0.53;65.05;93489.13;520146;28;1089;-68
2024/03/23 01:10:59;;;;;;;15.90;11.25;;;;;;;0.40;64.73;93485.31;523211;28;863;-68
2024/03/23 01:11:14;;;;;;;15.30;10.90;;;;;;;0.38;64.83;93493.22;521450;28;883;-69
2024/03/23 01:11:30;;;;;;;13.70;10.60;;;;;;;0.32;64.98;93495.91;521024;28;997;-68
2024/03/23 01:11:45;;;;;;;13.43;10.27;;;;;;;0.28;65.21;93489.19;521001;28;833;-68
2024/03/23 01:12:01;;;;;;;16.83;10.63;;;;;;;0.29;65.22;93496.84;521342;28;953;-69
2024/03/23 01:12:17;;;;;;;17.27;10.07;;;;;;;0.29;65.21;93494.13;521478;28;946;-68
2024/03/23 01:12:32;;;;;;;12.90;9.00;;;;;;;0.30;65.32;93490.19;521268;28;1741;-68
2024/03/23 01:12:48;;;;;;;11.90;8.90;;;;;;;0.34;65.18;93496.16;521807;28;856;-68
2024/03/23 01:13:03;;;;;;;12.40;8.83;;;;;;;0.38;65.14;93498.63;521265;28;915;-68
2024/03/23 01:13:21;;;;;;;11.98;8.27;;;;;;;0.41;64.91;93492.25;521385;28;1021;-69
2024/03/23 01:13:37;;;;;;;10.25;7.63;;;;;;;0.42;64.60;93489.06;522394;28;844;-68
2024/03/23 01:13:55;;;;;;;11.70;7.97;;;;;;;0.44;64.84;93492.03;523546;28;859;-68
2024/03/23 01:14:11;;;;;;;11.15;7.63;;;;;;;0.47;64.90;93501.19;521088;28;1354;-68
2024/03/23 01:14:26;;;;;;;9.77;7.57;;;;;;;0.44;65.20;93483.88;521490;28;757;-68
2024/03/23 01:14:42;;;;;;;9.93;7.67;;;;;;;0.48;64.76;93494.50;523230;28;827;-68
2024/03/23 01:14:57;;;;;;;8.88;7.25;;;;;;;0.50;64.90;93497.50;521533;28;847;-68
2024/03/23 01:15:13;;;;;;;8.10;6.77;;;;;;;0.49;64.88;93490.59;521483;28;812;-68
2024/03/23 01:15:28;;;;;;;9.07;6.70;;;;;;;0.50;64.80;93494.78;521410;28;843;-68
2024/03/23 01:15:48;;;;;;;8.73;6.50;;;;;;;0.46;64.64;93491.53;519983;28;855;-68